sensor_id;sensor_type;location;lat;lon;timestamp;P1;durP1;ratioP1;P2;durP2;ratioP2
73452;SDS011;61687;56.232;43.854;2022-12-07T00:00:46;16.23;;;6.88;;
73452;SDS011;61687;56.232;43.854;2022-12-07T00:03:12;13.82;;;7.22;;
73452;SDS011;61687;56.232;43.854;2022-12-07T00:05:38;12.85;;;6.63;;
73452;SDS011;61687;56.232;43.854;2022-12-07T00:08:04;14.60;;;7.82;;
73452;SDS011;61687;56.232;43.854;2022-12-07T00:10:29;17.98;;;8.52;;
73452;SDS011;61687;56.232;43.854;2022-12-07T00:12:55;11.05;;;6.72;;
73452;SDS011;61687;56.232;43.854;2022-12-07T00:15:21;14.27;;;6.83;;
73452;SDS011;61687;56.232;43.854;2022-12-07T00:17:47;15.20;;;7.78;;
73452;SDS011;61687;56.232;43.854;2022-12-07T00:20:13;16.08;;;7.55;;
73452;SDS011;61687;56.232;43.854;2022-12-07T00:22:39;15.32;;;7.43;;
73452;SDS011;61687;56.232;43.854;2022-12-07T00:25:05;14.65;;;7.70;;
73452;SDS011;61687;56.232;43.854;2022-12-07T00:27:31;12.85;;;7.03;;
73452;SDS011;61687;56.232;43.854;2022-12-07T00:29:57;15.85;;;7.68;;
73452;SDS011;61687;56.232;43.854;2022-12-07T00:32:22;13.05;;;7.35;;
73452;SDS011;61687;56.232;43.854;2022-12-07T00:34:48;17.45;;;7.68;;
73452;SDS011;61687;56.232;43.854;2022-12-07T00:37:14;17.13;;;8.23;;
73452;SDS011;61687;56.232;43.854;2022-12-07T00:39:40;14.40;;;7.50;;
73452;SDS011;61687;56.232;43.854;2022-12-07T00:42:06;17.40;;;8.30;;
73452;SDS011;61687;56.232;43.854;2022-12-07T00:44:32;14.00;;;7.37;;
73452;SDS011;61687;56.232;43.854;2022-12-07T00:46:58;12.77;;;7.68;;
73452;SDS011;61687;56.232;43.854;2022-12-07T00:49:24;13.55;;;7.75;;
73452;SDS011;61687;56.232;43.854;2022-12-07T00:51:50;14.47;;;7.73;;
73452;SDS011;61687;56.232;43.854;2022-12-07T00:54:15;14.55;;;7.47;;
73452;SDS011;61687;56.232;43.854;2022-12-07T00:56:41;15.50;;;7.75;;
73452;SDS011;61687;56.232;43.854;2022-12-07T00:59:10;14.60;;;7.33;;
73452;SDS011;61687;56.232;43.854;2022-12-07T01:01:39;14.77;;;7.35;;
73452;SDS011;61687;56.232;43.854;2022-12-07T01:04:05;12.43;;;7.18;;
73452;SDS011;61687;56.232;43.854;2022-12-07T01:06:31;14.30;;;6.90;;
73452;SDS011;61687;56.232;43.854;2022-12-07T01:08:57;13.87;;;7.57;;
73452;SDS011;61687;56.232;43.854;2022-12-07T01:11:25;13.57;;;7.00;;
73452;SDS011;61687;56.232;43.854;2022-12-07T01:13:53;16.75;;;7.45;;
73452;SDS011;61687;56.232;43.854;2022-12-07T01:16:21;14.57;;;7.65;;
73452;SDS011;61687;56.232;43.854;2022-12-07T01:18:49;13.50;;;7.55;;
73452;SDS011;61687;56.232;43.854;2022-12-07T01:21:18;16.33;;;7.10;;
73452;SDS011;61687;56.232;43.854;2022-12-07T01:23:49;16.10;;;7.63;;
73452;SDS011;61687;56.232;43.854;2022-12-07T01:26:16;15.55;;;7.60;;
73452;SDS011;61687;56.232;43.854;2022-12-07T01:28:44;15.23;;;7.88;;
73452;SDS011;61687;56.232;43.854;2022-12-07T01:31:12;18.27;;;8.40;;
73452;SDS011;61687;56.232;43.854;2022-12-07T01:33:43;16.07;;;7.80;;
73452;SDS011;61687;56.232;43.854;2022-12-07T01:36:14;13.18;;;7.53;;
73452;SDS011;61687;56.232;43.854;2022-12-07T01:38:48;13.82;;;7.15;;
73452;SDS011;61687;56.232;43.854;2022-12-07T01:41:19;16.52;;;7.93;;
73452;SDS011;61687;56.232;43.854;2022-12-07T01:46:52;13.53;;;7.60;;
73452;SDS011;61687;56.232;43.854;2022-12-07T01:52:05;16.27;;;7.60;;
73452;SDS011;61687;56.232;43.854;2022-12-07T01:54:47;14.00;;;7.95;;
73452;SDS011;61687;56.232;43.854;2022-12-07T01:57:16;15.20;;;6.75;;
73452;SDS011;61687;56.232;43.854;2022-12-07T01:59:43;18.07;;;8.10;;
73452;SDS011;61687;56.232;43.854;2022-12-07T02:02:17;14.10;;;7.30;;
73452;SDS011;61687;56.232;43.854;2022-12-07T02:04:59;14.25;;;7.20;;
73452;SDS011;61687;56.232;43.854;2022-12-07T02:07:26;14.45;;;7.78;;
73452;SDS011;61687;56.232;43.854;2022-12-07T02:09:54;16.33;;;7.68;;
73452;SDS011;61687;56.232;43.854;2022-12-07T02:12:20;17.03;;;7.50;;
73452;SDS011;61687;56.232;43.854;2022-12-07T02:15:08;13.82;;;7.50;;
73452;SDS011;61687;56.232;43.854;2022-12-07T02:17:40;15.73;;;7.65;;
73452;SDS011;61687;56.232;43.854;2022-12-07T02:28:31;17.38;;;8.07;;
73452;SDS011;61687;56.232;43.854;2022-12-07T02:31:17;17.27;;;6.57;;
73452;SDS011;61687;56.232;43.854;2022-12-07T02:33:46;14.57;;;7.38;;
73452;SDS011;61687;56.232;43.854;2022-12-07T02:36:21;12.47;;;6.27;;
73452;SDS011;61687;56.232;43.854;2022-12-07T02:38:56;15.98;;;7.60;;
73452;SDS011;61687;56.232;43.854;2022-12-07T02:41:29;17.20;;;8.15;;
73452;SDS011;61687;56.232;43.854;2022-12-07T02:44:02;17.05;;;7.22;;
73452;SDS011;61687;56.232;43.854;2022-12-07T02:46:33;14.02;;;7.00;;
73452;SDS011;61687;56.232;43.854;2022-12-07T02:49:03;18.97;;;7.50;;
73452;SDS011;61687;56.232;43.854;2022-12-07T02:51:31;17.02;;;7.53;;
73452;SDS011;61687;56.232;43.854;2022-12-07T02:53:58;16.40;;;7.68;;
73452;SDS011;61687;56.232;43.854;2022-12-07T03:04:43;16.15;;;9.38;;
73452;SDS011;61687;56.232;43.854;2022-12-07T03:07:28;16.88;;;7.32;;
73452;SDS011;61687;56.232;43.854;2022-12-07T03:18:30;19.33;;;7.53;;
73452;SDS011;61687;56.232;43.854;2022-12-07T03:21:02;21.85;;;8.75;;
73452;SDS011;61687;56.232;43.854;2022-12-07T03:23:35;17.37;;;8.30;;
73452;SDS011;61687;56.232;43.854;2022-12-07T03:26:04;19.35;;;8.50;;
73452;SDS011;61687;56.232;43.854;2022-12-07T03:28:35;17.65;;;8.55;;
73452;SDS011;61687;56.232;43.854;2022-12-07T03:31:23;18.85;;;8.95;;
73452;SDS011;61687;56.232;43.854;2022-12-07T03:36:35;15.17;;;7.87;;
73452;SDS011;61687;56.232;43.854;2022-12-07T03:39:11;18.98;;;8.18;;
73452;SDS011;61687;56.232;43.854;2022-12-07T03:41:38;20.42;;;9.13;;
73452;SDS011;61687;56.232;43.854;2022-12-07T03:44:05;16.85;;;8.32;;
73452;SDS011;61687;56.232;43.854;2022-12-07T03:46:37;17.20;;;8.20;;
73452;SDS011;61687;56.232;43.854;2022-12-07T03:52:11;19.48;;;8.38;;
73452;SDS011;61687;56.232;43.854;2022-12-07T03:57:33;18.02;;;8.02;;
73452;SDS011;61687;56.232;43.854;2022-12-07T04:00:00;15.18;;;7.47;;
73452;SDS011;61687;56.232;43.854;2022-12-07T04:02:37;18.00;;;8.27;;
73452;SDS011;61687;56.232;43.854;2022-12-07T04:05:03;18.90;;;8.25;;
73452;SDS011;61687;56.232;43.854;2022-12-07T04:07:30;17.40;;;8.85;;
73452;SDS011;61687;56.232;43.854;2022-12-07T04:09:56;17.70;;;8.57;;
73452;SDS011;61687;56.232;43.854;2022-12-07T04:12:22;20.50;;;8.63;;
73452;SDS011;61687;56.232;43.854;2022-12-07T04:14:48;17.27;;;9.00;;
73452;SDS011;61687;56.232;43.854;2022-12-07T04:17:13;17.50;;;8.88;;
73452;SDS011;61687;56.232;43.854;2022-12-07T04:19:39;18.37;;;8.30;;
73452;SDS011;61687;56.232;43.854;2022-12-07T04:22:05;19.35;;;8.45;;
73452;SDS011;61687;56.232;43.854;2022-12-07T04:24:31;17.38;;;8.63;;
73452;SDS011;61687;56.232;43.854;2022-12-07T04:26:58;20.73;;;9.27;;
73452;SDS011;61687;56.232;43.854;2022-12-07T04:29:24;22.63;;;8.35;;
73452;SDS011;61687;56.232;43.854;2022-12-07T04:31:51;17.33;;;8.43;;
73452;SDS011;61687;56.232;43.854;2022-12-07T04:34:17;19.13;;;8.85;;
73452;SDS011;61687;56.232;43.854;2022-12-07T04:36:43;21.17;;;8.77;;
73452;SDS011;61687;56.232;43.854;2022-12-07T04:39:23;15.82;;;7.53;;
73452;SDS011;61687;56.232;43.854;2022-12-07T04:41:53;21.27;;;9.27;;
73452;SDS011;61687;56.232;43.854;2022-12-07T04:44:20;19.88;;;8.38;;
73452;SDS011;61687;56.232;43.854;2022-12-07T04:46:46;14.17;;;7.57;;
73452;SDS011;61687;56.232;43.854;2022-12-07T04:49:13;15.82;;;7.97;;
73452;SDS011;61687;56.232;43.854;2022-12-07T04:51:40;17.90;;;9.18;;
73452;SDS011;61687;56.232;43.854;2022-12-07T04:54:07;15.43;;;8.05;;
73452;SDS011;61687;56.232;43.854;2022-12-07T04:56:33;18.27;;;8.82;;
73452;SDS011;61687;56.232;43.854;2022-12-07T04:59:00;21.00;;;8.43;;
73452;SDS011;61687;56.232;43.854;2022-12-07T05:01:27;19.85;;;8.68;;
73452;SDS011;61687;56.232;43.854;2022-12-07T05:03:52;20.35;;;10.05;;
73452;SDS011;61687;56.232;43.854;2022-12-07T05:06:18;18.63;;;9.18;;
73452;SDS011;61687;56.232;43.854;2022-12-07T05:08:45;22.17;;;9.70;;
73452;SDS011;61687;56.232;43.854;2022-12-07T05:11:11;19.65;;;9.55;;
73452;SDS011;61687;56.232;43.854;2022-12-07T05:14:01;15.93;;;8.68;;
73452;SDS011;61687;56.232;43.854;2022-12-07T05:16:28;14.85;;;8.25;;
73452;SDS011;61687;56.232;43.854;2022-12-07T05:18:53;17.45;;;7.97;;
73452;SDS011;61687;56.232;43.854;2022-12-07T05:21:20;19.53;;;8.50;;
73452;SDS011;61687;56.232;43.854;2022-12-07T05:23:46;22.30;;;10.10;;
73452;SDS011;61687;56.232;43.854;2022-12-07T05:26:11;19.70;;;9.20;;
73452;SDS011;61687;56.232;43.854;2022-12-07T05:28:37;22.23;;;9.70;;
73452;SDS011;61687;56.232;43.854;2022-12-07T05:31:03;21.80;;;9.25;;
73452;SDS011;61687;56.232;43.854;2022-12-07T05:33:29;19.58;;;9.95;;
73452;SDS011;61687;56.232;43.854;2022-12-07T05:35:55;20.60;;;9.63;;
73452;SDS011;61687;56.232;43.854;2022-12-07T05:38:21;22.27;;;8.82;;
73452;SDS011;61687;56.232;43.854;2022-12-07T05:40:47;22.77;;;9.48;;
73452;SDS011;61687;56.232;43.854;2022-12-07T05:43:13;19.90;;;10.27;;
73452;SDS011;61687;56.232;43.854;2022-12-07T05:45:38;22.65;;;11.13;;
73452;SDS011;61687;56.232;43.854;2022-12-07T05:48:04;23.88;;;10.75;;
73452;SDS011;61687;56.232;43.854;2022-12-07T05:50:30;23.87;;;9.20;;
73452;SDS011;61687;56.232;43.854;2022-12-07T05:53:00;22.75;;;9.63;;
73452;SDS011;61687;56.232;43.854;2022-12-07T05:55:26;17.42;;;8.43;;
73452;SDS011;61687;56.232;43.854;2022-12-07T05:57:51;21.70;;;10.35;;
73452;SDS011;61687;56.232;43.854;2022-12-07T06:00:36;21.73;;;10.37;;
73452;SDS011;61687;56.232;43.854;2022-12-07T06:03:02;19.58;;;9.30;;
73452;SDS011;61687;56.232;43.854;2022-12-07T06:05:27;18.50;;;8.70;;
73452;SDS011;61687;56.232;43.854;2022-12-07T06:07:53;24.90;;;10.17;;
73452;SDS011;61687;56.232;43.854;2022-12-07T06:10:19;18.20;;;9.43;;
73452;SDS011;61687;56.232;43.854;2022-12-07T06:12:45;18.33;;;8.87;;
73452;SDS011;61687;56.232;43.854;2022-12-07T06:15:11;20.85;;;9.52;;
73452;SDS011;61687;56.232;43.854;2022-12-07T06:17:38;23.60;;;9.73;;
73452;SDS011;61687;56.232;43.854;2022-12-07T06:20:04;19.55;;;9.55;;
73452;SDS011;61687;56.232;43.854;2022-12-07T06:22:31;21.35;;;9.63;;
73452;SDS011;61687;56.232;43.854;2022-12-07T06:24:57;19.57;;;9.00;;
73452;SDS011;61687;56.232;43.854;2022-12-07T06:27:23;20.95;;;10.63;;
73452;SDS011;61687;56.232;43.854;2022-12-07T06:29:48;20.13;;;8.52;;
73452;SDS011;61687;56.232;43.854;2022-12-07T06:32:14;21.37;;;9.60;;
73452;SDS011;61687;56.232;43.854;2022-12-07T06:34:40;18.20;;;9.90;;
73452;SDS011;61687;56.232;43.854;2022-12-07T06:37:06;22.02;;;9.43;;
73452;SDS011;61687;56.232;43.854;2022-12-07T06:39:32;18.92;;;9.63;;
73452;SDS011;61687;56.232;43.854;2022-12-07T06:41:58;20.97;;;9.40;;
73452;SDS011;61687;56.232;43.854;2022-12-07T06:44:24;19.63;;;9.85;;
73452;SDS011;61687;56.232;43.854;2022-12-07T06:46:50;19.93;;;9.17;;
73452;SDS011;61687;56.232;43.854;2022-12-07T06:49:17;20.02;;;9.63;;
73452;SDS011;61687;56.232;43.854;2022-12-07T06:51:43;22.90;;;10.57;;
73452;SDS011;61687;56.232;43.854;2022-12-07T06:54:09;17.08;;;9.02;;
73452;SDS011;61687;56.232;43.854;2022-12-07T06:56:37;23.63;;;10.38;;
73452;SDS011;61687;56.232;43.854;2022-12-07T06:59:04;21.77;;;9.73;;
73452;SDS011;61687;56.232;43.854;2022-12-07T07:01:32;24.35;;;9.80;;
73452;SDS011;61687;56.232;43.854;2022-12-07T07:03:59;18.92;;;9.30;;
73452;SDS011;61687;56.232;43.854;2022-12-07T07:06:25;31.50;;;10.50;;
73452;SDS011;61687;56.232;43.854;2022-12-07T07:08:51;24.87;;;10.10;;
73452;SDS011;61687;56.232;43.854;2022-12-07T07:11:17;24.70;;;10.20;;
73452;SDS011;61687;56.232;43.854;2022-12-07T07:13:43;20.02;;;9.18;;
73452;SDS011;61687;56.232;43.854;2022-12-07T07:16:10;22.60;;;9.25;;
73452;SDS011;61687;56.232;43.854;2022-12-07T07:18:36;27.63;;;11.50;;
73452;SDS011;61687;56.232;43.854;2022-12-07T07:21:02;26.55;;;12.35;;
73452;SDS011;61687;56.232;43.854;2022-12-07T07:23:28;30.70;;;12.90;;
73452;SDS011;61687;56.232;43.854;2022-12-07T07:25:54;28.73;;;11.50;;
73452;SDS011;61687;56.232;43.854;2022-12-07T07:28:20;29.07;;;12.57;;
73452;SDS011;61687;56.232;43.854;2022-12-07T07:30:46;33.55;;;11.77;;
73452;SDS011;61687;56.232;43.854;2022-12-07T07:33:12;24.58;;;10.93;;
73452;SDS011;61687;56.232;43.854;2022-12-07T07:35:38;28.43;;;11.73;;
73452;SDS011;61687;56.232;43.854;2022-12-07T07:38:04;26.02;;;11.45;;
73452;SDS011;61687;56.232;43.854;2022-12-07T07:40:31;30.17;;;11.73;;
73452;SDS011;61687;56.232;43.854;2022-12-07T07:42:57;27.10;;;12.07;;
73452;SDS011;61687;56.232;43.854;2022-12-07T07:45:23;23.75;;;10.23;;
73452;SDS011;61687;56.232;43.854;2022-12-07T07:47:50;22.73;;;10.97;;
73452;SDS011;61687;56.232;43.854;2022-12-07T07:50:16;24.48;;;10.05;;
73452;SDS011;61687;56.232;43.854;2022-12-07T07:52:43;26.88;;;11.63;;
73452;SDS011;61687;56.232;43.854;2022-12-07T07:55:09;24.80;;;11.20;;
73452;SDS011;61687;56.232;43.854;2022-12-07T07:57:36;27.90;;;10.52;;
73452;SDS011;61687;56.232;43.854;2022-12-07T08:00:09;25.00;;;10.27;;
73452;SDS011;61687;56.232;43.854;2022-12-07T08:02:39;22.55;;;9.88;;
73452;SDS011;61687;56.232;43.854;2022-12-07T08:05:06;22.83;;;10.30;;
73452;SDS011;61687;56.232;43.854;2022-12-07T08:07:32;30.23;;;10.68;;
73452;SDS011;61687;56.232;43.854;2022-12-07T08:09:58;26.97;;;12.63;;
73452;SDS011;61687;56.232;43.854;2022-12-07T08:12:24;27.10;;;10.68;;
73452;SDS011;61687;56.232;43.854;2022-12-07T08:14:49;26.35;;;10.50;;
73452;SDS011;61687;56.232;43.854;2022-12-07T08:17:15;26.10;;;9.85;;
73452;SDS011;61687;56.232;43.854;2022-12-07T08:19:41;24.98;;;10.98;;
73452;SDS011;61687;56.232;43.854;2022-12-07T08:22:07;28.87;;;11.80;;
73452;SDS011;61687;56.232;43.854;2022-12-07T08:24:33;30.00;;;11.50;;
73452;SDS011;61687;56.232;43.854;2022-12-07T08:27:00;23.38;;;10.80;;
73452;SDS011;61687;56.232;43.854;2022-12-07T08:29:26;26.95;;;11.00;;
73452;SDS011;61687;56.232;43.854;2022-12-07T08:31:52;21.93;;;10.17;;
73452;SDS011;61687;56.232;43.854;2022-12-07T08:34:18;23.88;;;9.73;;
73452;SDS011;61687;56.232;43.854;2022-12-07T08:36:44;20.80;;;9.65;;
73452;SDS011;61687;56.232;43.854;2022-12-07T08:39:10;25.23;;;10.00;;
73452;SDS011;61687;56.232;43.854;2022-12-07T08:41:36;22.02;;;10.00;;
73452;SDS011;61687;56.232;43.854;2022-12-07T08:44:02;26.17;;;11.38;;
73452;SDS011;61687;56.232;43.854;2022-12-07T08:46:42;21.20;;;10.33;;
73452;SDS011;61687;56.232;43.854;2022-12-07T08:51:46;23.40;;;10.18;;
73452;SDS011;61687;56.232;43.854;2022-12-07T08:54:14;21.40;;;9.38;;
73452;SDS011;61687;56.232;43.854;2022-12-07T08:56:42;22.70;;;9.50;;
73452;SDS011;61687;56.232;43.854;2022-12-07T08:59:09;19.40;;;9.17;;
73452;SDS011;61687;56.232;43.854;2022-12-07T09:01:37;21.55;;;9.80;;
73452;SDS011;61687;56.232;43.854;2022-12-07T09:04:02;29.52;;;11.80;;
73452;SDS011;61687;56.232;43.854;2022-12-07T09:06:30;21.90;;;9.98;;
73452;SDS011;61687;56.232;43.854;2022-12-07T09:08:56;27.13;;;10.03;;
73452;SDS011;61687;56.232;43.854;2022-12-07T09:11:24;20.42;;;9.57;;
73452;SDS011;61687;56.232;43.854;2022-12-07T09:13:50;22.38;;;10.05;;
73452;SDS011;61687;56.232;43.854;2022-12-07T09:16:16;21.97;;;10.40;;
73452;SDS011;61687;56.232;43.854;2022-12-07T09:18:42;23.45;;;11.00;;
73452;SDS011;61687;56.232;43.854;2022-12-07T09:21:08;25.05;;;10.43;;
73452;SDS011;61687;56.232;43.854;2022-12-07T09:23:34;21.60;;;10.50;;
73452;SDS011;61687;56.232;43.854;2022-12-07T09:26:01;23.27;;;10.88;;
73452;SDS011;61687;56.232;43.854;2022-12-07T09:28:27;20.10;;;8.82;;
73452;SDS011;61687;56.232;43.854;2022-12-07T09:30:53;23.80;;;10.50;;
73452;SDS011;61687;56.232;43.854;2022-12-07T09:33:19;21.10;;;9.93;;
73452;SDS011;61687;56.232;43.854;2022-12-07T09:35:45;16.27;;;7.90;;
73452;SDS011;61687;56.232;43.854;2022-12-07T09:38:14;24.92;;;11.05;;
73452;SDS011;61687;56.232;43.854;2022-12-07T09:40:41;20.40;;;9.63;;
73452;SDS011;61687;56.232;43.854;2022-12-07T09:43:16;20.08;;;9.85;;
73452;SDS011;61687;56.232;43.854;2022-12-07T09:45:46;23.55;;;10.30;;
73452;SDS011;61687;56.232;43.854;2022-12-07T09:48:16;24.80;;;10.00;;
73452;SDS011;61687;56.232;43.854;2022-12-07T09:50:45;20.38;;;9.23;;
73452;SDS011;61687;56.232;43.854;2022-12-07T09:53:18;21.03;;;9.83;;
73452;SDS011;61687;56.232;43.854;2022-12-07T09:55:45;22.17;;;9.75;;
73452;SDS011;61687;56.232;43.854;2022-12-07T09:58:13;21.98;;;9.88;;
73452;SDS011;61687;56.232;43.854;2022-12-07T10:00:46;17.45;;;9.00;;
73452;SDS011;61687;56.232;43.854;2022-12-07T10:03:11;21.80;;;9.80;;
73452;SDS011;61687;56.232;43.854;2022-12-07T10:05:39;24.20;;;9.80;;
73452;SDS011;61687;56.232;43.854;2022-12-07T10:08:12;21.10;;;9.75;;
73452;SDS011;61687;56.232;43.854;2022-12-07T10:10:39;19.15;;;8.90;;
73452;SDS011;61687;56.232;43.854;2022-12-07T10:13:10;19.65;;;8.95;;
73452;SDS011;61687;56.232;43.854;2022-12-07T10:15:53;20.20;;;9.10;;
73452;SDS011;61687;56.232;43.854;2022-12-07T10:18:31;18.38;;;7.82;;
73452;SDS011;61687;56.232;43.854;2022-12-07T10:23:37;20.75;;;8.68;;
73452;SDS011;61687;56.232;43.854;2022-12-07T10:31:40;16.58;;;8.05;;
73452;SDS011;61687;56.232;43.854;2022-12-07T10:34:14;19.63;;;8.75;;
73452;SDS011;61687;56.232;43.854;2022-12-07T10:36:50;16.83;;;8.15;;
73452;SDS011;61687;56.232;43.854;2022-12-07T10:39:20;18.05;;;8.70;;
73452;SDS011;61687;56.232;43.854;2022-12-07T10:44:25;16.80;;;7.78;;
73452;SDS011;61687;56.232;43.854;2022-12-07T10:55:22;16.17;;;8.63;;
73452;SDS011;61687;56.232;43.854;2022-12-07T11:03:37;22.00;;;10.23;;
73452;SDS011;61687;56.232;43.854;2022-12-07T11:06:16;21.58;;;9.73;;
73452;SDS011;61687;56.232;43.854;2022-12-07T11:08:57;24.47;;;9.90;;
73452;SDS011;61687;56.232;43.854;2022-12-07T11:20:01;23.50;;;10.07;;
73452;SDS011;61687;56.232;43.854;2022-12-07T11:22:44;23.50;;;9.37;;
73452;SDS011;61687;56.232;43.854;2022-12-07T11:25:31;22.52;;;9.75;;
73452;SDS011;61687;56.232;43.854;2022-12-07T11:28:14;20.98;;;9.65;;
73452;SDS011;61687;56.232;43.854;2022-12-07T11:30:51;22.48;;;9.55;;
73452;SDS011;61687;56.232;43.854;2022-12-07T11:34:00;20.63;;;10.02;;
73452;SDS011;61687;56.232;43.854;2022-12-07T11:36:51;21.87;;;9.33;;
73452;SDS011;61687;56.232;43.854;2022-12-07T11:42:01;22.77;;;10.20;;
73452;SDS011;61687;56.232;43.854;2022-12-07T11:44:57;20.73;;;9.77;;
73452;SDS011;61687;56.232;43.854;2022-12-07T11:50:37;25.83;;;10.13;;
73452;SDS011;61687;56.232;43.854;2022-12-07T11:53:14;26.25;;;9.52;;
73452;SDS011;61687;56.232;43.854;2022-12-07T12:06:35;25.88;;;10.50;;
73452;SDS011;61687;56.232;43.854;2022-12-07T12:09:45;20.83;;;9.73;;
73452;SDS011;61687;56.232;43.854;2022-12-07T12:14:37;25.05;;;10.68;;
73452;SDS011;61687;56.232;43.854;2022-12-07T12:23:13;23.63;;;9.90;;
73452;SDS011;61687;56.232;43.854;2022-12-07T12:28:23;21.88;;;9.48;;
73452;SDS011;61687;56.232;43.854;2022-12-07T12:33:33;22.50;;;10.43;;
73452;SDS011;61687;56.232;43.854;2022-12-07T12:49:33;28.05;;;10.90;;
73452;SDS011;61687;56.232;43.854;2022-12-07T12:53:11;22.02;;;10.40;;
73452;SDS011;61687;56.232;43.854;2022-12-07T12:57:36;23.33;;;9.83;;
73452;SDS011;61687;56.232;43.854;2022-12-07T13:00:18;21.02;;;8.93;;
73452;SDS011;61687;56.232;43.854;2022-12-07T13:05:21;26.48;;;10.75;;
73452;SDS011;61687;56.232;43.854;2022-12-07T13:07:56;25.55;;;10.95;;
73452;SDS011;61687;56.232;43.854;2022-12-07T13:15:40;23.85;;;9.88;;
73452;SDS011;61687;56.232;43.854;2022-12-07T13:28:41;24.23;;;11.02;;
73452;SDS011;61687;56.232;43.854;2022-12-07T13:39:52;24.73;;;10.10;;
73452;SDS011;61687;56.232;43.854;2022-12-07T13:42:27;29.65;;;10.73;;
73452;SDS011;61687;56.232;43.854;2022-12-07T13:44:54;25.63;;;10.73;;
73452;SDS011;61687;56.232;43.854;2022-12-07T13:47:41;21.40;;;10.23;;
73452;SDS011;61687;56.232;43.854;2022-12-07T13:50:26;20.23;;;9.95;;
73452;SDS011;61687;56.232;43.854;2022-12-07T13:52:55;23.25;;;11.98;;
73452;SDS011;61687;56.232;43.854;2022-12-07T13:55:22;23.70;;;10.60;;
73452;SDS011;61687;56.232;43.854;2022-12-07T13:57:49;23.45;;;10.65;;
73452;SDS011;61687;56.232;43.854;2022-12-07T14:03:03;28.25;;;11.52;;
73452;SDS011;61687;56.232;43.854;2022-12-07T14:05:45;28.30;;;11.48;;
73452;SDS011;61687;56.232;43.854;2022-12-07T14:10:38;34.37;;;12.10;;
73452;SDS011;61687;56.232;43.854;2022-12-07T14:18:51;26.70;;;10.60;;
73452;SDS011;61687;56.232;43.854;2022-12-07T14:21:21;30.80;;;11.77;;
73452;SDS011;61687;56.232;43.854;2022-12-07T14:26:33;29.35;;;12.52;;
73452;SDS011;61687;56.232;43.854;2022-12-07T14:31:46;28.95;;;11.65;;
73452;SDS011;61687;56.232;43.854;2022-12-07T14:34:12;26.83;;;11.13;;
73452;SDS011;61687;56.232;43.854;2022-12-07T14:36:38;29.23;;;12.30;;
73452;SDS011;61687;56.232;43.854;2022-12-07T14:39:04;22.40;;;11.50;;
73452;SDS011;61687;56.232;43.854;2022-12-07T14:41:30;30.00;;;12.77;;
73452;SDS011;61687;56.232;43.854;2022-12-07T14:44:15;30.47;;;11.93;;
73452;SDS011;61687;56.232;43.854;2022-12-07T14:46:40;31.27;;;12.25;;
73452;SDS011;61687;56.232;43.854;2022-12-07T14:49:06;22.00;;;9.00;;
73452;SDS011;61687;56.232;43.854;2022-12-07T14:51:32;25.50;;;11.53;;
73452;SDS011;61687;56.232;43.854;2022-12-07T14:54:01;26.80;;;11.88;;
73452;SDS011;61687;56.232;43.854;2022-12-07T14:56:29;29.50;;;12.57;;
73452;SDS011;61687;56.232;43.854;2022-12-07T14:58:54;26.97;;;11.87;;
73452;SDS011;61687;56.232;43.854;2022-12-07T15:01:20;29.17;;;10.90;;
73452;SDS011;61687;56.232;43.854;2022-12-07T15:03:46;31.07;;;11.73;;
73452;SDS011;61687;56.232;43.854;2022-12-07T15:06:15;25.75;;;11.75;;
73452;SDS011;61687;56.232;43.854;2022-12-07T15:08:42;29.75;;;11.23;;
73452;SDS011;61687;56.232;43.854;2022-12-07T15:11:13;26.73;;;11.68;;
73452;SDS011;61687;56.232;43.854;2022-12-07T15:13:39;28.43;;;11.70;;
73452;SDS011;61687;56.232;43.854;2022-12-07T15:16:23;27.23;;;11.00;;
73452;SDS011;61687;56.232;43.854;2022-12-07T15:18:49;26.55;;;11.65;;
73452;SDS011;61687;56.232;43.854;2022-12-07T15:21:16;25.53;;;11.13;;
73452;SDS011;61687;56.232;43.854;2022-12-07T15:23:41;32.00;;;12.00;;
73452;SDS011;61687;56.232;43.854;2022-12-07T15:26:09;24.02;;;10.15;;
73452;SDS011;61687;56.232;43.854;2022-12-07T15:28:36;29.63;;;12.40;;
73452;SDS011;61687;56.232;43.854;2022-12-07T15:31:02;24.87;;;12.17;;
73452;SDS011;61687;56.232;43.854;2022-12-07T15:33:28;22.52;;;9.57;;
73452;SDS011;61687;56.232;43.854;2022-12-07T15:35:54;30.83;;;12.05;;
73452;SDS011;61687;56.232;43.854;2022-12-07T15:38:20;28.60;;;12.07;;
73452;SDS011;61687;56.232;43.854;2022-12-07T15:40:48;24.27;;;11.13;;
73452;SDS011;61687;56.232;43.854;2022-12-07T15:43:14;28.17;;;11.23;;
73452;SDS011;61687;56.232;43.854;2022-12-07T15:45:59;28.33;;;12.50;;
73452;SDS011;61687;56.232;43.854;2022-12-07T15:48:25;30.53;;;12.27;;
73452;SDS011;61687;56.232;43.854;2022-12-07T15:50:50;28.02;;;11.93;;
73452;SDS011;61687;56.232;43.854;2022-12-07T15:53:16;29.37;;;11.67;;
73452;SDS011;61687;56.232;43.854;2022-12-07T15:55:42;25.83;;;10.77;;
73452;SDS011;61687;56.232;43.854;2022-12-07T15:58:08;25.20;;;12.07;;
73452;SDS011;61687;56.232;43.854;2022-12-07T16:00:34;24.00;;;10.90;;
73452;SDS011;61687;56.232;43.854;2022-12-07T16:03:00;31.63;;;12.30;;
73452;SDS011;61687;56.232;43.854;2022-12-07T16:05:26;25.95;;;11.25;;
73452;SDS011;61687;56.232;43.854;2022-12-07T16:07:51;33.13;;;10.70;;
73452;SDS011;61687;56.232;43.854;2022-12-07T16:10:17;22.15;;;11.25;;
73452;SDS011;61687;56.232;43.854;2022-12-07T16:12:43;25.33;;;10.63;;
73452;SDS011;61687;56.232;43.854;2022-12-07T16:15:09;29.25;;;11.25;;
73452;SDS011;61687;56.232;43.854;2022-12-07T16:17:35;28.33;;;12.32;;
73452;SDS011;61687;56.232;43.854;2022-12-07T16:20:01;26.07;;;10.77;;
73452;SDS011;61687;56.232;43.854;2022-12-07T16:22:28;23.58;;;10.77;;
73452;SDS011;61687;56.232;43.854;2022-12-07T16:24:55;32.65;;;11.57;;
73452;SDS011;61687;56.232;43.854;2022-12-07T16:27:20;30.47;;;11.97;;
73452;SDS011;61687;56.232;43.854;2022-12-07T16:29:46;27.92;;;11.38;;
73452;SDS011;61687;56.232;43.854;2022-12-07T16:32:12;29.77;;;10.88;;
73452;SDS011;61687;56.232;43.854;2022-12-07T16:34:39;24.95;;;10.95;;
73452;SDS011;61687;56.232;43.854;2022-12-07T16:37:05;26.83;;;11.73;;
73452;SDS011;61687;56.232;43.854;2022-12-07T16:39:32;25.33;;;11.38;;
73452;SDS011;61687;56.232;43.854;2022-12-07T16:41:59;33.50;;;13.13;;
73452;SDS011;61687;56.232;43.854;2022-12-07T16:44:25;29.30;;;12.25;;
73452;SDS011;61687;56.232;43.854;2022-12-07T16:46:51;29.27;;;11.45;;
73452;SDS011;61687;56.232;43.854;2022-12-07T16:49:17;29.23;;;12.45;;
73452;SDS011;61687;56.232;43.854;2022-12-07T16:51:44;38.78;;;12.40;;
73452;SDS011;61687;56.232;43.854;2022-12-07T16:54:10;30.70;;;12.73;;
73452;SDS011;61687;56.232;43.854;2022-12-07T16:56:37;30.45;;;12.10;;
73452;SDS011;61687;56.232;43.854;2022-12-07T16:59:03;30.17;;;12.23;;
73452;SDS011;61687;56.232;43.854;2022-12-07T17:01:29;34.03;;;12.80;;
73452;SDS011;61687;56.232;43.854;2022-12-07T17:03:56;29.52;;;12.38;;
73452;SDS011;61687;56.232;43.854;2022-12-07T17:06:24;29.55;;;12.45;;
73452;SDS011;61687;56.232;43.854;2022-12-07T17:08:52;30.55;;;13.18;;
73452;SDS011;61687;56.232;43.854;2022-12-07T17:11:26;39.78;;;13.63;;